createdAt,value
2023-03-26T00:02:07.692Z,3.95
2023-03-26T00:07:10.918Z,2.60
2023-03-26T00:12:15.154Z,3.88
2023-03-26T00:17:17.978Z,3.42
2023-03-26T00:22:20.842Z,4.32
2023-03-26T00:27:25.298Z,3.80
2023-03-26T00:32:29.612Z,3.90
2023-03-26T00:37:33.871Z,3.70
2023-03-26T00:42:38.699Z,4.57
2023-03-26T00:47:43.493Z,4.47
2023-03-26T00:52:46.896Z,4.47
2023-03-26T00:57:51.108Z,4.50
2023-03-26T01:02:55.818Z,4.45
2023-03-26T01:07:58.887Z,5.43
2023-03-26T01:13:03.096Z,5.50
2023-03-26T01:18:09.860Z,5.97
2023-03-26T01:23:19.555Z,7.00
2023-03-26T01:28:26.283Z,9.32
2023-03-26T01:33:38.002Z,8.10
2023-03-26T01:38:48.919Z,8.20
2023-03-26T01:44:00.106Z,8.30
2023-03-26T01:49:05.281Z,6.32
2023-03-26T01:54:10.888Z,8.27
2023-03-26T01:59:31.903Z,6.05
2023-03-26T02:04:48.198Z,8.30
2023-03-26T02:09:55.278Z,8.00
2023-03-26T02:15:00.922Z,7.47
2023-03-26T02:20:06.076Z,6.63
2023-03-26T02:25:12.726Z,7.15
2023-03-26T02:30:19.434Z,7.43
2023-03-26T02:35:24.642Z,6.55
2023-03-26T02:40:33.160Z,6.80
2023-03-26T02:45:37.793Z,6.30
2023-03-26T02:50:40.565Z,6.47
2023-03-26T02:56:07.499Z,6.20
2023-03-26T03:01:21.123Z,6.63
2023-03-26T03:06:30.908Z,7.10
2023-03-26T03:11:35.515Z,6.93
2023-03-26T03:16:39.962Z,7.32
2023-03-26T03:21:46.120Z,8.50
2023-03-26T03:26:50.254Z,9.32
2023-03-26T03:32:08.188Z,9.25
2023-03-26T03:37:17.762Z,9.48
2023-03-26T03:42:27.433Z,9.80
2023-03-26T03:47:34.772Z,10.48
2023-03-26T03:52:37.933Z,10.13
2023-03-26T03:57:41.525Z,11.13
2023-03-26T04:02:54.341Z,10.93
2023-03-26T04:07:59.944Z,9.93
2023-03-26T04:13:02.911Z,10.35
2023-03-26T04:18:39.927Z,9.95
2023-03-26T04:23:49.172Z,8.35
2023-03-26T04:29:17.127Z,9.85
2023-03-26T04:34:25.250Z,8.98
2023-03-26T04:39:48.294Z,10.35
2023-03-26T04:45:14.183Z,10.93
2023-03-26T04:50:20.668Z,11.23
2023-03-26T04:55:27.153Z,11.18
2023-03-26T05:00:39.424Z,11.35
2023-03-26T05:05:43.909Z,12.90
2023-03-26T05:10:46.794Z,14.05
2023-03-26T05:15:56.643Z,13.55
2023-03-26T05:21:09.428Z,14.30
2023-03-26T05:26:16.333Z,16.77
2023-03-26T05:31:21.198Z,17.13
2023-03-26T05:36:28.372Z,20.13
2023-03-26T05:41:59.530Z,21.30
2023-03-26T05:47:11.964Z,21.25
2023-03-26T05:52:18.974Z,21.85
2023-03-26T05:57:44.349Z,22.45
2023-03-26T06:03:23.037Z,22.60
2023-03-26T06:08:46.784Z,10.35
2023-03-26T06:13:49.984Z,20.10
2023-03-26T06:18:57.198Z,24.80
2023-03-26T06:24:10.378Z,22.60
2023-03-26T06:29:23.164Z,20.70
2023-03-26T06:34:33.440Z,21.90
2023-03-26T06:39:37.705Z,21.50
2023-03-26T06:45:10.911Z,24.30
2023-03-26T06:50:33.185Z,23.52
2023-03-26T06:55:48.289Z,22.40
2023-03-26T07:01:11.440Z,19.42
2023-03-26T07:06:33.217Z,19.55
2023-03-26T07:11:55.785Z,19.40
2023-03-26T07:17:16.977Z,18.17
2023-03-26T07:22:30.632Z,19.80
2023-03-26T07:27:55.351Z,16.67
2023-03-26T07:33:35.620Z,17.85
2023-03-26T07:39:07.558Z,15.98
2023-03-26T07:44:52.830Z,16.20
2023-03-26T07:50:25.926Z,16.73
2023-03-26T07:55:58.531Z,15.55
2023-03-26T08:01:25.955Z,14.18
2023-03-26T08:06:36.466Z,15.75
2023-03-26T08:11:59.704Z,15.45
2023-03-26T08:17:09.215Z,13.70
2023-03-26T08:22:16.810Z,13.65
2023-03-26T08:27:24.487Z,14.55
2023-03-26T08:32:29.384Z,13.98
2023-03-26T08:37:32.253Z,13.48
2023-03-26T08:43:07.430Z,13.95
2023-03-26T08:48:45.502Z,12.60
2023-03-26T08:54:15.643Z,10.98
2023-03-26T08:59:45.851Z,12.20
2023-03-26T09:05:21.167Z,11.50
2023-03-26T09:10:44.632Z,12.60
2023-03-26T09:16:06.454Z,13.07
2023-03-26T09:21:40.203Z,10.97
2023-03-26T09:26:51.355Z,12.18
2023-03-26T09:32:35.597Z,10.65
2023-03-26T09:37:58.292Z,10.48
2023-03-26T09:43:24.061Z,11.82
2023-03-26T09:48:43.670Z,11.75
2023-03-26T09:54:29.425Z,10.18
2023-03-26T09:59:55.722Z,12.13
2023-03-26T10:05:21.546Z,11.77
2023-03-26T10:10:37.421Z,11.13
2023-03-26T10:15:58.599Z,11.38
2023-03-26T10:21:07.684Z,11.73
2023-03-26T10:26:29.317Z,11.30
2023-03-26T10:31:41.490Z,9.15
2023-03-26T10:36:53.980Z,10.10
2023-03-26T10:42:07.479Z,9.45
2023-03-26T10:47:30.524Z,9.32
2023-03-26T10:52:42.690Z,9.05
2023-03-26T10:57:52.084Z,8.32
2023-03-26T11:03:44.217Z,8.60
2023-03-26T11:08:54.891Z,8.63
2023-03-26T11:14:06.986Z,8.75
2023-03-26T11:24:47.551Z,8.50
2023-03-26T11:30:02.618Z,8.98
2023-03-26T11:35:16.394Z,9.35
2023-03-26T11:40:24.333Z,9.73
2023-03-26T11:45:31.967Z,10.43
2023-03-26T11:50:41.092Z,10.88
2023-03-26T11:55:49.328Z,11.63
2023-03-26T12:00:55.854Z,10.77
2023-03-26T12:06:02.756Z,10.00
2023-03-26T12:11:10.707Z,11.40
2023-03-26T12:16:17.713Z,11.65
2023-03-26T12:21:21.054Z,12.45
2023-03-26T12:26:34.067Z,10.13
2023-03-26T12:31:49.314Z,13.13
2023-03-26T12:36:54.029Z,12.15
2023-03-26T12:43:51.614Z,10.57
2023-03-26T12:47:58.246Z,8.32
2023-03-26T12:53:08.920Z,7.85
2023-03-26T12:58:30.234Z,9.30
2023-03-26T13:03:45.508Z,6.82
2023-03-26T13:09:19.659Z,6.25
2023-03-26T13:14:49.333Z,5.00
2023-03-26T13:20:03.099Z,6.03
2023-03-26T13:25:20.590Z,6.60
2023-03-26T13:30:32.364Z,6.47
2023-03-26T13:35:41.125Z,4.63
2023-03-26T13:40:57.609Z,4.60
2023-03-26T13:46:08.624Z,5.15
2023-03-26T13:51:19.336Z,4.93
2023-03-26T13:56:26.923Z,5.15
2023-03-26T14:01:35.255Z,5.40
2023-03-26T14:06:47.831Z,5.75
2023-03-26T14:12:01.362Z,5.53
2023-03-26T14:17:15.662Z,5.05
2023-03-26T14:22:31.577Z,5.75
2023-03-26T14:27:45.378Z,6.10
2023-03-26T14:33:01.075Z,6.40
2023-03-26T14:38:54.375Z,5.80
2023-03-26T14:44:18.280Z,7.07
2023-03-26T14:49:36.738Z,8.60
2023-03-26T14:54:43.772Z,9.57
2023-03-26T15:00:22.658Z,10.73
2023-03-26T15:06:03.380Z,9.00
2023-03-26T15:11:21.472Z,9.18
2023-03-26T15:16:53.504Z,8.90
2023-03-26T15:27:38.705Z,6.97
2023-03-26T15:33:18.049Z,5.85
2023-03-26T15:38:57.811Z,6.85
2023-03-26T15:44:27.919Z,5.88
2023-03-26T15:49:41.124Z,5.68
2023-03-26T15:54:52.207Z,7.20
2023-03-26T16:00:15.019Z,5.47
2023-03-26T16:05:32.101Z,6.40
2023-03-26T16:10:44.599Z,5.75
2023-03-26T16:15:56.006Z,4.82
2023-03-26T16:21:41.127Z,6.97
2023-03-26T16:27:00.783Z,5.28
2023-03-26T16:32:16.932Z,6.22
2023-03-26T16:37:38.289Z,5.57
2023-03-26T16:42:46.686Z,5.25
2023-03-26T16:48:00.926Z,4.22
2023-03-26T16:53:24.114Z,7.40
2023-03-26T16:58:34.353Z,7.50
2023-03-26T17:03:50.771Z,3.65
2023-03-26T17:09:01.279Z,3.83
2023-03-26T17:14:19.238Z,3.53
2023-03-26T17:19:34.910Z,4.68
2023-03-26T17:24:47.841Z,3.38
2023-03-26T17:30:34.446Z,2.78
2023-03-26T17:35:43.188Z,3.92
2023-03-26T17:40:54.865Z,2.55
2023-03-26T17:46:02.742Z,2.90
2023-03-26T17:51:27.557Z,3.13
2023-03-26T17:56:33.135Z,2.38
2023-03-26T18:07:31.734Z,2.83
2023-03-26T18:12:52.700Z,2.40
2023-03-26T18:18:04.003Z,2.13
2023-03-26T18:23:21.978Z,2.92
2023-03-26T18:28:31.682Z,3.97
2023-03-26T18:33:42.937Z,3.08
2023-03-26T18:38:48.786Z,2.10
2023-03-26T18:43:51.808Z,3.33
2023-03-26T18:48:55.678Z,2.30
2023-03-26T18:54:01.888Z,3.50
2023-03-26T18:59:07.179Z,2.35
2023-03-26T19:04:13.243Z,2.40
2023-03-26T19:09:31.171Z,3.25
2023-03-26T19:14:36.927Z,2.17
2023-03-26T19:19:40.014Z,1.95
2023-03-26T19:24:44.451Z,1.85
2023-03-26T19:29:47.722Z,3.65
2023-03-26T19:34:50.712Z,2.00
2023-03-26T19:39:56.280Z,1.92
2023-03-26T19:45:01.350Z,1.60
2023-03-26T19:50:23.336Z,2.45
2023-03-26T19:55:28.241Z,1.65
2023-03-26T20:00:31.886Z,2.70
2023-03-26T20:05:36.355Z,1.70
2023-03-26T20:10:40.525Z,1.85
2023-03-26T20:15:46.467Z,1.70
2023-03-26T20:20:49.303Z,2.55
2023-03-26T20:25:54.989Z,3.05
2023-03-26T20:30:58.168Z,2.10
2023-03-26T20:36:01.730Z,1.88
2023-03-26T20:41:06.365Z,1.85
2023-03-26T20:46:14.865Z,2.10
2023-03-26T20:51:20.149Z,1.70
2023-03-26T20:56:24.504Z,2.90
2023-03-26T21:01:27.770Z,2.05
2023-03-26T21:06:30.827Z,2.45
2023-03-26T21:11:46.061Z,2.22
2023-03-26T21:16:49.590Z,1.85
2023-03-26T21:22:11.888Z,2.20
2023-03-26T21:27:26.068Z,2.22
2023-03-26T21:32:31.625Z,2.15
2023-03-26T21:37:35.499Z,1.70
2023-03-26T21:42:40.462Z,2.05
2023-03-26T21:47:43.796Z,1.85
2023-03-26T21:52:50.395Z,1.65
2023-03-26T21:58:17.413Z,2.40
2023-03-26T22:03:26.384Z,1.90
2023-03-26T22:08:32.248Z,3.38
2023-03-26T22:13:38.157Z,1.40
2023-03-26T22:18:43.680Z,2.60
2023-03-26T22:23:52.717Z,2.53
2023-03-26T22:28:57.217Z,2.30
2023-03-26T22:34:00.019Z,1.88
2023-03-26T22:39:02.975Z,2.10
2023-03-26T22:44:18.945Z,2.13
2023-03-26T22:49:22.885Z,3.35
2023-03-26T22:54:26.291Z,3.38
2023-03-26T22:59:31.067Z,2.05
2023-03-26T23:04:33.930Z,1.98
2023-03-26T23:09:37.522Z,3.40
2023-03-26T23:14:41.704Z,1.77
2023-03-26T23:19:44.494Z,1.65
2023-03-26T23:24:47.311Z,1.70
2023-03-26T23:29:51.447Z,1.60
2023-03-26T23:34:55.712Z,2.03
2023-03-26T23:39:58.738Z,1.50
2023-03-26T23:45:02.879Z,3.20
2023-03-26T23:50:06.672Z,2.80
2023-03-26T23:55:10.124Z,1.75
